sensor_id;sensor_type;location;lat;lon;timestamp;temperature;humidity
14006;DHT22;7078;51.542;7.314;2023-04-24T00:00:15;11.40;99.90
14006;DHT22;7078;51.542;7.314;2023-04-24T00:02:43;11.40;99.90
14006;DHT22;7078;51.542;7.314;2023-04-24T00:05:13;11.50;99.90
14006;DHT22;7078;51.542;7.314;2023-04-24T00:07:39;11.50;99.90
14006;DHT22;7078;51.542;7.314;2023-04-24T00:10:05;11.50;99.90
14006;DHT22;7078;51.542;7.314;2023-04-24T00:12:31;11.40;99.90
14006;DHT22;7078;51.542;7.314;2023-04-24T00:14:57;11.40;99.90
14006;DHT22;7078;51.542;7.314;2023-04-24T00:17:22;11.40;99.90
14006;DHT22;7078;51.542;7.314;2023-04-24T00:19:48;11.40;99.90
14006;DHT22;7078;51.542;7.314;2023-04-24T00:22:15;11.40;99.90
14006;DHT22;7078;51.542;7.314;2023-04-24T00:24:41;11.30;99.90
14006;DHT22;7078;51.542;7.314;2023-04-24T00:27:06;11.30;99.90
14006;DHT22;7078;51.542;7.314;2023-04-24T00:29:32;11.30;99.90
14006;DHT22;7078;51.542;7.314;2023-04-24T00:31:58;11.30;99.90
14006;DHT22;7078;51.542;7.314;2023-04-24T00:34:23;11.20;99.90
14006;DHT22;7078;51.542;7.314;2023-04-24T00:36:49;11.20;99.90
14006;DHT22;7078;51.542;7.314;2023-04-24T00:39:18;11.10;99.90
14006;DHT22;7078;51.542;7.314;2023-04-24T00:41:43;11.10;99.90
14006;DHT22;7078;51.542;7.314;2023-04-24T00:44:10;11.00;99.90
14006;DHT22;7078;51.542;7.314;2023-04-24T00:46:36;11.00;99.90
14006;DHT22;7078;51.542;7.314;2023-04-24T00:49:02;10.90;99.90
14006;DHT22;7078;51.542;7.314;2023-04-24T00:51:28;10.90;99.90
14006;DHT22;7078;51.542;7.314;2023-04-24T00:53:53;10.80;99.90
14006;DHT22;7078;51.542;7.314;2023-04-24T00:56:19;10.80;99.90
14006;DHT22;7078;51.542;7.314;2023-04-24T00:58:45;10.70;99.90
14006;DHT22;7078;51.542;7.314;2023-04-24T01:01:10;10.70;99.90
14006;DHT22;7078;51.542;7.314;2023-04-24T01:03:37;10.70;99.90
14006;DHT22;7078;51.542;7.314;2023-04-24T01:06:03;10.70;99.90
14006;DHT22;7078;51.542;7.314;2023-04-24T01:08:29;10.60;99.90
14006;DHT22;7078;51.542;7.314;2023-04-24T01:10:57;10.60;99.90
14006;DHT22;7078;51.542;7.314;2023-04-24T01:13:22;10.60;99.90
14006;DHT22;7078;51.542;7.314;2023-04-24T01:15:48;10.60;99.90
14006;DHT22;7078;51.542;7.314;2023-04-24T01:18:14;10.50;99.90
14006;DHT22;7078;51.542;7.314;2023-04-24T01:20:41;10.50;99.90
14006;DHT22;7078;51.542;7.314;2023-04-24T01:23:09;10.40;99.90
14006;DHT22;7078;51.542;7.314;2023-04-24T01:25:35;10.40;99.90
14006;DHT22;7078;51.542;7.314;2023-04-24T01:28:01;10.40;99.90
14006;DHT22;7078;51.542;7.314;2023-04-24T01:30:27;10.40;99.90
14006;DHT22;7078;51.542;7.314;2023-04-24T01:32:53;10.40;99.90
14006;DHT22;7078;51.542;7.314;2023-04-24T01:35:19;10.40;99.90
14006;DHT22;7078;51.542;7.314;2023-04-24T01:37:45;10.40;99.90
14006;DHT22;7078;51.542;7.314;2023-04-24T01:40:11;10.40;99.90
14006;DHT22;7078;51.542;7.314;2023-04-24T01:42:36;10.40;99.90
14006;DHT22;7078;51.542;7.314;2023-04-24T01:45:03;10.40;99.90
14006;DHT22;7078;51.542;7.314;2023-04-24T01:47:30;10.40;99.90
14006;DHT22;7078;51.542;7.314;2023-04-24T01:49:56;10.50;99.90
14006;DHT22;7078;51.542;7.314;2023-04-24T01:52:22;10.40;99.90
14006;DHT22;7078;51.542;7.314;2023-04-24T01:54:47;10.40;99.90
14006;DHT22;7078;51.542;7.314;2023-04-24T01:57:14;10.40;99.90
14006;DHT22;7078;51.542;7.314;2023-04-24T01:59:40;10.30;99.90
14006;DHT22;7078;51.542;7.314;2023-04-24T02:02:05;10.30;99.90
14006;DHT22;7078;51.542;7.314;2023-04-24T02:04:31;10.20;99.90
14006;DHT22;7078;51.542;7.314;2023-04-24T02:06:56;10.20;99.90
14006;DHT22;7078;51.542;7.314;2023-04-24T02:09:22;10.00;99.90
14006;DHT22;7078;51.542;7.314;2023-04-24T02:11:48;10.10;99.90
14006;DHT22;7078;51.542;7.314;2023-04-24T02:14:13;10.00;99.90
14006;DHT22;7078;51.542;7.314;2023-04-24T02:16:39;9.80;99.90
14006;DHT22;7078;51.542;7.314;2023-04-24T02:19:04;9.90;99.90
14006;DHT22;7078;51.542;7.314;2023-04-24T02:21:30;9.90;99.90
14006;DHT22;7078;51.542;7.314;2023-04-24T02:23:56;10.00;99.90
14006;DHT22;7078;51.542;7.314;2023-04-24T02:26:22;9.80;99.90
14006;DHT22;7078;51.542;7.314;2023-04-24T02:28:48;9.70;99.90
14006;DHT22;7078;51.542;7.314;2023-04-24T02:31:14;9.70;99.90
14006;DHT22;7078;51.542;7.314;2023-04-24T02:33:40;9.70;99.90
14006;DHT22;7078;51.542;7.314;2023-04-24T02:36:05;9.60;99.90
14006;DHT22;7078;51.542;7.314;2023-04-24T02:38:31;9.50;99.90
14006;DHT22;7078;51.542;7.314;2023-04-24T02:40:56;9.40;99.90
14006;DHT22;7078;51.542;7.314;2023-04-24T02:43:22;9.40;99.90
14006;DHT22;7078;51.542;7.314;2023-04-24T02:45:47;9.30;99.90
14006;DHT22;7078;51.542;7.314;2023-04-24T02:48:14;9.30;99.90
14006;DHT22;7078;51.542;7.314;2023-04-24T02:50:39;9.30;99.90
14006;DHT22;7078;51.542;7.314;2023-04-24T02:53:05;9.20;99.90
14006;DHT22;7078;51.542;7.314;2023-04-24T02:55:31;9.20;99.90
14006;DHT22;7078;51.542;7.314;2023-04-24T02:57:56;9.10;99.90
14006;DHT22;7078;51.542;7.314;2023-04-24T03:00:22;9.10;99.90
14006;DHT22;7078;51.542;7.314;2023-04-24T03:02:47;9.10;99.90
14006;DHT22;7078;51.542;7.314;2023-04-24T03:05:14;9.20;99.90
14006;DHT22;7078;51.542;7.314;2023-04-24T03:07:40;9.10;99.90
14006;DHT22;7078;51.542;7.314;2023-04-24T03:10:06;9.20;99.90
14006;DHT22;7078;51.542;7.314;2023-04-24T03:12:32;9.20;99.90
14006;DHT22;7078;51.542;7.314;2023-04-24T03:18:19;9.30;99.90
14006;DHT22;7078;51.542;7.314;2023-04-24T03:20:45;9.30;99.90
14006;DHT22;7078;51.542;7.314;2023-04-24T03:23:11;9.30;99.90
14006;DHT22;7078;51.542;7.314;2023-04-24T03:25:37;9.40;99.90
14006;DHT22;7078;51.542;7.314;2023-04-24T03:28:03;9.40;99.90
14006;DHT22;7078;51.542;7.314;2023-04-24T03:30:28;9.40;99.90
14006;DHT22;7078;51.542;7.314;2023-04-24T03:32:54;9.50;99.90
14006;DHT22;7078;51.542;7.314;2023-04-24T03:35:19;9.50;99.90
14006;DHT22;7078;51.542;7.314;2023-04-24T03:37:46;9.60;99.90
14006;DHT22;7078;51.542;7.314;2023-04-24T03:40:12;9.60;99.90
14006;DHT22;7078;51.542;7.314;2023-04-24T03:42:37;9.60;99.90
14006;DHT22;7078;51.542;7.314;2023-04-24T03:45:03;9.60;99.90
14006;DHT22;7078;51.542;7.314;2023-04-24T03:47:28;9.60;99.90
14006;DHT22;7078;51.542;7.314;2023-04-24T03:49:54;9.60;99.90
14006;DHT22;7078;51.542;7.314;2023-04-24T03:52:21;9.70;99.90
14006;DHT22;7078;51.542;7.314;2023-04-24T03:54:46;9.70;99.90
14006;DHT22;7078;51.542;7.314;2023-04-24T03:57:12;9.70;99.90
14006;DHT22;7078;51.542;7.314;2023-04-24T03:59:37;9.70;99.90
14006;DHT22;7078;51.542;7.314;2023-04-24T04:02:03;9.70;99.90
14006;DHT22;7078;51.542;7.314;2023-04-24T04:04:28;9.90;99.90
14006;DHT22;7078;51.542;7.314;2023-04-24T04:06:54;9.70;99.90
14006;DHT22;7078;51.542;7.314;2023-04-24T04:09:19;9.70;99.90
14006;DHT22;7078;51.542;7.314;2023-04-24T04:11:45;9.70;99.90
14006;DHT22;7078;51.542;7.314;2023-04-24T04:14:10;9.70;99.90
14006;DHT22;7078;51.542;7.314;2023-04-24T04:16:36;9.70;99.90
14006;DHT22;7078;51.542;7.314;2023-04-24T04:19:02;9.70;99.90
14006;DHT22;7078;51.542;7.314;2023-04-24T04:21:28;9.80;99.90
14006;DHT22;7078;51.542;7.314;2023-04-24T04:23:54;9.70;99.90
14006;DHT22;7078;51.542;7.314;2023-04-24T04:26:19;9.80;99.90
14006;DHT22;7078;51.542;7.314;2023-04-24T04:28:46;9.70;99.90
14006;DHT22;7078;51.542;7.314;2023-04-24T04:31:13;9.70;99.90
14006;DHT22;7078;51.542;7.314;2023-04-24T04:33:38;9.70;99.90
14006;DHT22;7078;51.542;7.314;2023-04-24T04:36:04;9.70;99.90
14006;DHT22;7078;51.542;7.314;2023-04-24T04:38:30;9.70;99.90
14006;DHT22;7078;51.542;7.314;2023-04-24T04:40:56;9.70;99.90
14006;DHT22;7078;51.542;7.314;2023-04-24T04:43:23;9.70;99.90
14006;DHT22;7078;51.542;7.314;2023-04-24T04:45:49;9.70;99.90
14006;DHT22;7078;51.542;7.314;2023-04-24T04:48:16;9.70;99.90
14006;DHT22;7078;51.542;7.314;2023-04-24T04:50:42;9.70;99.90
14006;DHT22;7078;51.542;7.314;2023-04-24T04:53:08;9.70;99.90
14006;DHT22;7078;51.542;7.314;2023-04-24T04:55:34;10.00;99.90
14006;DHT22;7078;51.542;7.314;2023-04-24T04:58:00;9.70;99.90
14006;DHT22;7078;51.542;7.314;2023-04-24T05:00:26;9.70;99.90
14006;DHT22;7078;51.542;7.314;2023-04-24T05:02:52;9.70;99.90
14006;DHT22;7078;51.542;7.314;2023-04-24T05:05:18;9.70;99.90
14006;DHT22;7078;51.542;7.314;2023-04-24T05:07:44;9.80;99.90
14006;DHT22;7078;51.542;7.314;2023-04-24T05:10:10;9.70;99.90
14006;DHT22;7078;51.542;7.314;2023-04-24T05:12:36;9.70;99.90
14006;DHT22;7078;51.542;7.314;2023-04-24T05:15:01;9.70;99.90
14006;DHT22;7078;51.542;7.314;2023-04-24T05:17:28;9.80;99.90
14006;DHT22;7078;51.542;7.314;2023-04-24T05:19:53;9.80;99.90
14006;DHT22;7078;51.542;7.314;2023-04-24T05:22:19;10.00;99.90
14006;DHT22;7078;51.542;7.314;2023-04-24T05:24:46;9.80;99.90
14006;DHT22;7078;51.542;7.314;2023-04-24T05:27:12;9.80;99.90
14006;DHT22;7078;51.542;7.314;2023-04-24T05:29:38;9.80;99.90
14006;DHT22;7078;51.542;7.314;2023-04-24T05:32:04;9.80;99.90
14006;DHT22;7078;51.542;7.314;2023-04-24T05:34:29;10.00;99.90
14006;DHT22;7078;51.542;7.314;2023-04-24T05:36:55;9.80;99.90
14006;DHT22;7078;51.542;7.314;2023-04-24T05:39:21;9.80;99.90
14006;DHT22;7078;51.542;7.314;2023-04-24T05:41:46;9.90;99.90
14006;DHT22;7078;51.542;7.314;2023-04-24T05:44:12;9.80;99.90
14006;DHT22;7078;51.542;7.314;2023-04-24T05:46:37;9.80;99.90
14006;DHT22;7078;51.542;7.314;2023-04-24T05:49:03;9.70;99.90
14006;DHT22;7078;51.542;7.314;2023-04-24T05:51:28;9.80;99.90
14006;DHT22;7078;51.542;7.314;2023-04-24T05:53:54;9.90;99.90
14006;DHT22;7078;51.542;7.314;2023-04-24T05:56:20;9.70;99.90
14006;DHT22;7078;51.542;7.314;2023-04-24T05:58:46;9.80;99.90
14006;DHT22;7078;51.542;7.314;2023-04-24T06:01:12;9.60;99.90
14006;DHT22;7078;51.542;7.314;2023-04-24T06:03:40;9.60;99.90
14006;DHT22;7078;51.542;7.314;2023-04-24T06:06:06;9.50;99.90
14006;DHT22;7078;51.542;7.314;2023-04-24T06:08:32;9.50;99.90
14006;DHT22;7078;51.542;7.314;2023-04-24T06:10:58;9.50;99.90
14006;DHT22;7078;51.542;7.314;2023-04-24T06:13:23;9.50;99.90
14006;DHT22;7078;51.542;7.314;2023-04-24T06:15:49;9.50;99.90
14006;DHT22;7078;51.542;7.314;2023-04-24T06:18:15;9.60;99.90
14006;DHT22;7078;51.542;7.314;2023-04-24T06:20:41;9.50;99.90
14006;DHT22;7078;51.542;7.314;2023-04-24T06:23:06;9.50;99.90
14006;DHT22;7078;51.542;7.314;2023-04-24T06:25:32;9.50;99.90
14006;DHT22;7078;51.542;7.314;2023-04-24T06:27:57;9.40;99.90
14006;DHT22;7078;51.542;7.314;2023-04-24T06:30:23;9.40;99.90
14006;DHT22;7078;51.542;7.314;2023-04-24T06:32:49;9.40;99.90
14006;DHT22;7078;51.542;7.314;2023-04-24T06:35:14;9.40;99.90
14006;DHT22;7078;51.542;7.314;2023-04-24T06:37:41;9.40;99.90
14006;DHT22;7078;51.542;7.314;2023-04-24T06:40:07;9.50;99.90
14006;DHT22;7078;51.542;7.314;2023-04-24T06:42:33;9.50;99.90
14006;DHT22;7078;51.542;7.314;2023-04-24T06:45:00;9.50;99.90
14006;DHT22;7078;51.542;7.314;2023-04-24T06:47:26;9.50;99.90
14006;DHT22;7078;51.542;7.314;2023-04-24T06:49:51;9.50;99.90
14006;DHT22;7078;51.542;7.314;2023-04-24T06:52:18;9.50;99.90
14006;DHT22;7078;51.542;7.314;2023-04-24T06:54:43;9.50;99.90
14006;DHT22;7078;51.542;7.314;2023-04-24T06:57:09;9.60;99.90
14006;DHT22;7078;51.542;7.314;2023-04-24T06:59:36;9.60;99.90
14006;DHT22;7078;51.542;7.314;2023-04-24T07:02:01;9.70;99.90
14006;DHT22;7078;51.542;7.314;2023-04-24T07:04:27;9.60;99.90
14006;DHT22;7078;51.542;7.314;2023-04-24T07:06:53;9.80;99.90
14006;DHT22;7078;51.542;7.314;2023-04-24T07:09:24;9.80;99.90
14006;DHT22;7078;51.542;7.314;2023-04-24T07:11:51;9.90;99.90
14006;DHT22;7078;51.542;7.314;2023-04-24T07:14:17;9.80;99.90
14006;DHT22;7078;51.542;7.314;2023-04-24T07:16:43;9.80;99.90
14006;DHT22;7078;51.542;7.314;2023-04-24T07:19:09;9.70;99.90
14006;DHT22;7078;51.542;7.314;2023-04-24T07:21:34;9.70;99.90
14006;DHT22;7078;51.542;7.314;2023-04-24T07:24:00;9.80;99.90
14006;DHT22;7078;51.542;7.314;2023-04-24T07:26:28;9.70;99.90
14006;DHT22;7078;51.542;7.314;2023-04-24T07:28:53;9.70;99.90
14006;DHT22;7078;51.542;7.314;2023-04-24T07:31:19;9.70;99.90
14006;DHT22;7078;51.542;7.314;2023-04-24T07:33:45;9.60;99.90
14006;DHT22;7078;51.542;7.314;2023-04-24T07:36:11;9.50;99.90
14006;DHT22;7078;51.542;7.314;2023-04-24T07:38:44;9.50;99.90
14006;DHT22;7078;51.542;7.314;2023-04-24T07:41:10;9.50;99.90
14006;DHT22;7078;51.542;7.314;2023-04-24T07:43:35;9.40;99.90
14006;DHT22;7078;51.542;7.314;2023-04-24T07:46:01;9.50;99.90
14006;DHT22;7078;51.542;7.314;2023-04-24T07:48:27;9.40;99.90
14006;DHT22;7078;51.542;7.314;2023-04-24T07:50:53;9.40;99.90
14006;DHT22;7078;51.542;7.314;2023-04-24T07:53:19;9.30;99.90
14006;DHT22;7078;51.542;7.314;2023-04-24T07:55:44;9.40;99.90
14006;DHT22;7078;51.542;7.314;2023-04-24T07:58:10;9.60;99.90
14006;DHT22;7078;51.542;7.314;2023-04-24T08:00:35;9.40;99.90
14006;DHT22;7078;51.542;7.314;2023-04-24T08:03:01;9.40;99.90
14006;DHT22;7078;51.542;7.314;2023-04-24T08:05:27;9.50;99.90
14006;DHT22;7078;51.542;7.314;2023-04-24T08:07:54;9.50;99.90
14006;DHT22;7078;51.542;7.314;2023-04-24T08:10:20;9.50;99.90
14006;DHT22;7078;51.542;7.314;2023-04-24T08:12:46;9.40;99.90
14006;DHT22;7078;51.542;7.314;2023-04-24T08:15:11;9.40;99.90
14006;DHT22;7078;51.542;7.314;2023-04-24T08:17:37;9.50;99.90
14006;DHT22;7078;51.542;7.314;2023-04-24T08:20:04;9.70;99.90
14006;DHT22;7078;51.542;7.314;2023-04-24T08:22:30;9.70;99.90
14006;DHT22;7078;51.542;7.314;2023-04-24T08:24:56;9.80;99.90
14006;DHT22;7078;51.542;7.314;2023-04-24T08:27:23;9.60;99.90
14006;DHT22;7078;51.542;7.314;2023-04-24T08:29:49;9.60;99.90
14006;DHT22;7078;51.542;7.314;2023-04-24T08:32:14;9.50;99.90
14006;DHT22;7078;51.542;7.314;2023-04-24T08:34:40;9.50;99.90
14006;DHT22;7078;51.542;7.314;2023-04-24T08:37:05;9.40;99.90
14006;DHT22;7078;51.542;7.314;2023-04-24T08:39:31;9.30;99.90
14006;DHT22;7078;51.542;7.314;2023-04-24T08:41:57;9.30;99.90
14006;DHT22;7078;51.542;7.314;2023-04-24T08:44:32;9.20;99.90
14006;DHT22;7078;51.542;7.314;2023-04-24T08:46:58;9.10;99.90
14006;DHT22;7078;51.542;7.314;2023-04-24T08:49:24;9.00;99.90
14006;DHT22;7078;51.542;7.314;2023-04-24T08:51:52;8.90;99.90
14006;DHT22;7078;51.542;7.314;2023-04-24T08:54:18;8.90;99.90
14006;DHT22;7078;51.542;7.314;2023-04-24T08:56:44;8.90;99.90
14006;DHT22;7078;51.542;7.314;2023-04-24T08:59:10;8.90;99.90
14006;DHT22;7078;51.542;7.314;2023-04-24T09:01:37;8.80;99.90
14006;DHT22;7078;51.542;7.314;2023-04-24T09:04:07;8.70;99.90
14006;DHT22;7078;51.542;7.314;2023-04-24T09:06:34;8.70;99.90
14006;DHT22;7078;51.542;7.314;2023-04-24T09:09:01;8.60;99.90
14006;DHT22;7078;51.542;7.314;2023-04-24T09:11:27;8.60;99.90
14006;DHT22;7078;51.542;7.314;2023-04-24T09:13:53;8.50;99.90
14006;DHT22;7078;51.542;7.314;2023-04-24T09:16:19;8.40;99.90
14006;DHT22;7078;51.542;7.314;2023-04-24T09:18:45;8.50;99.90
14006;DHT22;7078;51.542;7.314;2023-04-24T09:21:11;8.60;99.90
14006;DHT22;7078;51.542;7.314;2023-04-24T09:23:37;8.60;99.90
14006;DHT22;7078;51.542;7.314;2023-04-24T09:26:03;8.60;99.90
14006;DHT22;7078;51.542;7.314;2023-04-24T09:28:39;8.70;99.90
14006;DHT22;7078;51.542;7.314;2023-04-24T09:31:07;8.70;99.90
14006;DHT22;7078;51.542;7.314;2023-04-24T09:33:34;8.60;99.90
14006;DHT22;7078;51.542;7.314;2023-04-24T09:36:00;8.70;99.90
14006;DHT22;7078;51.542;7.314;2023-04-24T09:38:34;8.70;99.90
14006;DHT22;7078;51.542;7.314;2023-04-24T09:41:04;8.70;99.90
14006;DHT22;7078;51.542;7.314;2023-04-24T09:43:31;8.70;99.90
14006;DHT22;7078;51.542;7.314;2023-04-24T09:45:58;8.90;99.90
14006;DHT22;7078;51.542;7.314;2023-04-24T09:48:32;9.10;99.90
14006;DHT22;7078;51.542;7.314;2023-04-24T09:50:58;9.10;99.90
14006;DHT22;7078;51.542;7.314;2023-04-24T09:53:24;9.20;99.90
14006;DHT22;7078;51.542;7.314;2023-04-24T09:55:50;9.20;99.90
14006;DHT22;7078;51.542;7.314;2023-04-24T09:58:24;9.20;99.90
14006;DHT22;7078;51.542;7.314;2023-04-24T10:00:49;9.10;99.90
14006;DHT22;7078;51.542;7.314;2023-04-24T10:03:18;9.10;99.90
14006;DHT22;7078;51.542;7.314;2023-04-24T10:05:46;9.10;99.90
14006;DHT22;7078;51.542;7.314;2023-04-24T10:08:12;9.00;99.90
14006;DHT22;7078;51.542;7.314;2023-04-24T10:10:42;8.90;99.90
14006;DHT22;7078;51.542;7.314;2023-04-24T10:13:13;8.90;99.90
14006;DHT22;7078;51.542;7.314;2023-04-24T10:15:39;8.90;99.90
14006;DHT22;7078;51.542;7.314;2023-04-24T10:18:06;8.90;99.90
14006;DHT22;7078;51.542;7.314;2023-04-24T10:20:33;8.90;99.90
14006;DHT22;7078;51.542;7.314;2023-04-24T10:22:59;8.80;99.90
14006;DHT22;7078;51.542;7.314;2023-04-24T10:25:27;8.70;99.90
14006;DHT22;7078;51.542;7.314;2023-04-24T10:27:54;8.80;99.90
14006;DHT22;7078;51.542;7.314;2023-04-24T10:30:23;8.70;99.90
14006;DHT22;7078;51.542;7.314;2023-04-24T10:32:49;8.60;99.90
14006;DHT22;7078;51.542;7.314;2023-04-24T10:35:15;8.60;99.90
14006;DHT22;7078;51.542;7.314;2023-04-24T10:37:54;8.60;99.90
14006;DHT22;7078;51.542;7.314;2023-04-24T10:40:26;8.60;99.90
14006;DHT22;7078;51.542;7.314;2023-04-24T10:42:52;8.60;99.90
14006;DHT22;7078;51.542;7.314;2023-04-24T10:45:20;8.60;99.90
14006;DHT22;7078;51.542;7.314;2023-04-24T10:47:56;8.70;99.90
14006;DHT22;7078;51.542;7.314;2023-04-24T10:50:22;8.80;99.90
14006;DHT22;7078;51.542;7.314;2023-04-24T10:52:48;8.90;99.90
14006;DHT22;7078;51.542;7.314;2023-04-24T10:55:17;9.00;99.90
14006;DHT22;7078;51.542;7.314;2023-04-24T10:58:05;9.00;99.90
14006;DHT22;7078;51.542;7.314;2023-04-24T11:00:31;9.10;99.90
14006;DHT22;7078;51.542;7.314;2023-04-24T11:02:57;9.10;99.90
14006;DHT22;7078;51.542;7.314;2023-04-24T11:05:58;9.10;99.90
14006;DHT22;7078;51.542;7.314;2023-04-24T11:08:27;9.00;99.90
14006;DHT22;7078;51.542;7.314;2023-04-24T11:16:25;9.00;99.90
14006;DHT22;7078;51.542;7.314;2023-04-24T11:18:57;8.90;99.90
14006;DHT22;7078;51.542;7.314;2023-04-24T11:21:25;8.90;99.90
14006;DHT22;7078;51.542;7.314;2023-04-24T11:23:51;8.80;99.90
14006;DHT22;7078;51.542;7.314;2023-04-24T11:26:26;8.90;99.90
14006;DHT22;7078;51.542;7.314;2023-04-24T11:29:07;8.80;99.90
14006;DHT22;7078;51.542;7.314;2023-04-24T11:31:40;8.80;99.90
14006;DHT22;7078;51.542;7.314;2023-04-24T11:34:14;8.90;99.90
14006;DHT22;7078;51.542;7.314;2023-04-24T11:36:43;8.90;99.90
14006;DHT22;7078;51.542;7.314;2023-04-24T11:39:08;8.90;99.90
14006;DHT22;7078;51.542;7.314;2023-04-24T11:41:35;9.00;99.90
14006;DHT22;7078;51.542;7.314;2023-04-24T11:44:02;9.10;99.90
14006;DHT22;7078;51.542;7.314;2023-04-24T11:46:29;9.10;99.90
14006;DHT22;7078;51.542;7.314;2023-04-24T11:48:56;9.20;99.90
14006;DHT22;7078;51.542;7.314;2023-04-24T11:51:23;9.40;99.90
14006;DHT22;7078;51.542;7.314;2023-04-24T11:53:49;9.50;99.90
14006;DHT22;7078;51.542;7.314;2023-04-24T11:56:18;9.60;99.90
14006;DHT22;7078;51.542;7.314;2023-04-24T11:58:45;9.50;99.90
14006;DHT22;7078;51.542;7.314;2023-04-24T12:01:11;9.50;99.90
14006;DHT22;7078;51.542;7.314;2023-04-24T12:03:36;9.40;99.90
14006;DHT22;7078;51.542;7.314;2023-04-24T12:06:06;9.50;99.90
14006;DHT22;7078;51.542;7.314;2023-04-24T12:08:33;9.50;99.90
14006;DHT22;7078;51.542;7.314;2023-04-24T12:11:00;9.60;99.90
14006;DHT22;7078;51.542;7.314;2023-04-24T12:13:26;9.50;99.90
14006;DHT22;7078;51.542;7.314;2023-04-24T12:15:52;9.40;99.90
14006;DHT22;7078;51.542;7.314;2023-04-24T12:18:17;9.30;99.90
14006;DHT22;7078;51.542;7.314;2023-04-24T12:20:43;9.40;99.90
14006;DHT22;7078;51.542;7.314;2023-04-24T12:23:09;9.50;99.90
14006;DHT22;7078;51.542;7.314;2023-04-24T12:25:35;9.70;99.90
14006;DHT22;7078;51.542;7.314;2023-04-24T12:30:30;10.20;99.90
14006;DHT22;7078;51.542;7.314;2023-04-24T12:32:57;10.30;99.90
14006;DHT22;7078;51.542;7.314;2023-04-24T12:35:24;10.40;99.90
14006;DHT22;7078;51.542;7.314;2023-04-24T12:37:50;10.50;99.90
14006;DHT22;7078;51.542;7.314;2023-04-24T12:40:17;10.60;99.90
14006;DHT22;7078;51.542;7.314;2023-04-24T12:42:45;10.40;99.90
14006;DHT22;7078;51.542;7.314;2023-04-24T12:45:12;10.40;99.90
14006;DHT22;7078;51.542;7.314;2023-04-24T12:47:38;10.40;99.90
14006;DHT22;7078;51.542;7.314;2023-04-24T12:50:12;10.30;99.90
14006;DHT22;7078;51.542;7.314;2023-04-24T12:52:38;10.00;99.90
14006;DHT22;7078;51.542;7.314;2023-04-24T12:55:05;9.80;99.90
14006;DHT22;7078;51.542;7.314;2023-04-24T12:57:34;9.70;99.90
14006;DHT22;7078;51.542;7.314;2023-04-24T13:00:00;9.70;99.90
14006;DHT22;7078;51.542;7.314;2023-04-24T13:02:27;9.70;99.90
14006;DHT22;7078;51.542;7.314;2023-04-24T13:04:54;9.80;99.90
14006;DHT22;7078;51.542;7.314;2023-04-24T13:07:20;9.90;99.90
14006;DHT22;7078;51.542;7.314;2023-04-24T13:09:47;10.00;99.90
14006;DHT22;7078;51.542;7.314;2023-04-24T13:12:13;10.50;99.90
14006;DHT22;7078;51.542;7.314;2023-04-24T13:14:38;10.50;99.90
14006;DHT22;7078;51.542;7.314;2023-04-24T13:17:04;10.70;99.90
14006;DHT22;7078;51.542;7.314;2023-04-24T13:19:44;10.70;99.90
14006;DHT22;7078;51.542;7.314;2023-04-24T13:22:11;10.60;99.90
14006;DHT22;7078;51.542;7.314;2023-04-24T13:24:38;10.40;99.90
14006;DHT22;7078;51.542;7.314;2023-04-24T13:27:05;10.30;99.90
14006;DHT22;7078;51.542;7.314;2023-04-24T13:29:30;10.20;99.90
14006;DHT22;7078;51.542;7.314;2023-04-24T13:31:56;10.10;99.90
14006;DHT22;7078;51.542;7.314;2023-04-24T13:34:25;10.10;99.90
14006;DHT22;7078;51.542;7.314;2023-04-24T13:36:55;10.10;99.90
14006;DHT22;7078;51.542;7.314;2023-04-24T13:39:22;10.00;99.90
14006;DHT22;7078;51.542;7.314;2023-04-24T13:41:48;10.00;99.90
14006;DHT22;7078;51.542;7.314;2023-04-24T13:44:17;10.00;99.90
14006;DHT22;7078;51.542;7.314;2023-04-24T13:46:45;10.00;99.90
14006;DHT22;7078;51.542;7.314;2023-04-24T13:49:12;10.00;99.90
14006;DHT22;7078;51.542;7.314;2023-04-24T13:51:38;9.90;99.90
14006;DHT22;7078;51.542;7.314;2023-04-24T13:54:04;10.00;99.90
14006;DHT22;7078;51.542;7.314;2023-04-24T13:56:29;10.10;99.90
14006;DHT22;7078;51.542;7.314;2023-04-24T13:58:56;10.00;99.90
14006;DHT22;7078;51.542;7.314;2023-04-24T14:01:22;10.00;99.90
14006;DHT22;7078;51.542;7.314;2023-04-24T14:03:52;10.10;99.90
14006;DHT22;7078;51.542;7.314;2023-04-24T14:06:20;10.10;99.90
14006;DHT22;7078;51.542;7.314;2023-04-24T14:08:47;10.10;99.90
14006;DHT22;7078;51.542;7.314;2023-04-24T14:11:12;10.10;99.90
14006;DHT22;7078;51.542;7.314;2023-04-24T14:13:39;10.30;99.90
14006;DHT22;7078;51.542;7.314;2023-04-24T14:16:05;10.40;99.90
14006;DHT22;7078;51.542;7.314;2023-04-24T14:18:31;10.60;99.90
14006;DHT22;7078;51.542;7.314;2023-04-24T14:20:57;10.70;99.90
14006;DHT22;7078;51.542;7.314;2023-04-24T14:23:22;10.70;99.90
14006;DHT22;7078;51.542;7.314;2023-04-24T14:25:48;10.70;99.90
14006;DHT22;7078;51.542;7.314;2023-04-24T14:28:20;10.80;99.90
14006;DHT22;7078;51.542;7.314;2023-04-24T14:30:46;10.90;99.90
14006;DHT22;7078;51.542;7.314;2023-04-24T14:33:12;10.90;99.90
14006;DHT22;7078;51.542;7.314;2023-04-24T14:35:39;10.90;99.90
14006;DHT22;7078;51.542;7.314;2023-04-24T14:38:05;10.80;99.90
14006;DHT22;7078;51.542;7.314;2023-04-24T14:40:31;10.80;99.90
14006;DHT22;7078;51.542;7.314;2023-04-24T14:42:58;10.70;99.90
14006;DHT22;7078;51.542;7.314;2023-04-24T14:45:24;10.60;99.90
14006;DHT22;7078;51.542;7.314;2023-04-24T14:47:50;10.50;99.90
14006;DHT22;7078;51.542;7.314;2023-04-24T14:50:16;10.30;99.90
14006;DHT22;7078;51.542;7.314;2023-04-24T14:52:42;10.20;99.90
14006;DHT22;7078;51.542;7.314;2023-04-24T14:55:08;10.10;99.90
14006;DHT22;7078;51.542;7.314;2023-04-24T14:57:34;10.00;99.90
14006;DHT22;7078;51.542;7.314;2023-04-24T15:00:01;9.90;99.90
14006;DHT22;7078;51.542;7.314;2023-04-24T15:02:26;9.80;99.90
14006;DHT22;7078;51.542;7.314;2023-04-24T15:08:14;9.80;99.90
14006;DHT22;7078;51.542;7.314;2023-04-24T15:10:40;9.70;99.90
14006;DHT22;7078;51.542;7.314;2023-04-24T15:13:05;9.70;99.90
14006;DHT22;7078;51.542;7.314;2023-04-24T15:15:31;9.70;99.90
14006;DHT22;7078;51.542;7.314;2023-04-24T15:17:56;9.60;99.90
14006;DHT22;7078;51.542;7.314;2023-04-24T15:20:22;9.70;99.90
14006;DHT22;7078;51.542;7.314;2023-04-24T15:22:47;9.70;99.90
14006;DHT22;7078;51.542;7.314;2023-04-24T15:25:13;9.80;99.90
14006;DHT22;7078;51.542;7.314;2023-04-24T15:27:42;9.90;99.90
14006;DHT22;7078;51.542;7.314;2023-04-24T15:30:08;10.80;99.90
14006;DHT22;7078;51.542;7.314;2023-04-24T15:32:34;11.90;99.90
14006;DHT22;7078;51.542;7.314;2023-04-24T15:35:00;12.10;99.90
14006;DHT22;7078;51.542;7.314;2023-04-24T15:37:25;12.30;99.90
14006;DHT22;7078;51.542;7.314;2023-04-24T15:39:51;11.90;99.90
14006;DHT22;7078;51.542;7.314;2023-04-24T15:42:16;11.60;99.90
14006;DHT22;7078;51.542;7.314;2023-04-24T15:44:42;11.80;99.90
14006;DHT22;7078;51.542;7.314;2023-04-24T15:47:07;11.70;99.90
14006;DHT22;7078;51.542;7.314;2023-04-24T15:49:33;11.50;99.90
14006;DHT22;7078;51.542;7.314;2023-04-24T15:51:58;11.10;99.90
14006;DHT22;7078;51.542;7.314;2023-04-24T15:54:24;10.80;99.90
14006;DHT22;7078;51.542;7.314;2023-04-24T15:56:50;10.70;99.90
14006;DHT22;7078;51.542;7.314;2023-04-24T15:59:17;10.60;99.90
14006;DHT22;7078;51.542;7.314;2023-04-24T16:01:42;10.50;99.90
14006;DHT22;7078;51.542;7.314;2023-04-24T16:04:08;10.50;99.90
14006;DHT22;7078;51.542;7.314;2023-04-24T16:06:33;10.40;99.90